sensor_id;sensor_type;location;lat;lon;timestamp;pressure;altitude;pressure_sealevel;temperature;humidity
57827;BME280;43656;57.746;11.780;2023-05-29T00:00:17;101844.28;;;14.02;66.85
57827;BME280;43656;57.746;11.780;2023-05-29T00:02:43;101847.97;;;13.95;67.19
57827;BME280;43656;57.746;11.780;2023-05-29T00:05:10;101839.09;;;13.79;67.25
57827;BME280;43656;57.746;11.780;2023-05-29T00:07:37;101852.88;;;13.84;66.88
57827;BME280;43656;57.746;11.780;2023-05-29T00:10:04;101846.75;;;13.76;66.92
57827;BME280;43656;57.746;11.780;2023-05-29T00:12:29;101860.28;;;13.76;66.62
57827;BME280;43656;57.746;11.780;2023-05-29T00:14:55;101858.09;;;13.65;66.75
57827;BME280;43656;57.746;11.780;2023-05-29T00:17:20;101860.47;;;13.53;67.30
57827;BME280;43656;57.746;11.780;2023-05-29T00:19:46;101864.72;;;13.40;67.78
57827;BME280;43656;57.746;11.780;2023-05-29T00:22:12;101854.88;;;13.33;67.89
57827;BME280;43656;57.746;11.780;2023-05-29T00:24:38;101861.47;;;13.30;68.24
57827;BME280;43656;57.746;11.780;2023-05-29T00:27:03;101861.75;;;13.21;68.22
57827;BME280;43656;57.746;11.780;2023-05-29T00:29:29;101867.88;;;13.08;68.80
57827;BME280;43656;57.746;11.780;2023-05-29T00:31:55;101865.84;;;12.95;69.12
57827;BME280;43656;57.746;11.780;2023-05-29T00:34:22;101859.50;;;12.88;69.52
57827;BME280;43656;57.746;11.780;2023-05-29T00:36:48;101863.44;;;12.85;69.79
57827;BME280;43656;57.746;11.780;2023-05-29T00:39:14;101877.03;;;12.77;69.88
57827;BME280;43656;57.746;11.780;2023-05-29T00:41:39;101882.53;;;12.69;70.20
57827;BME280;43656;57.746;11.780;2023-05-29T00:44:05;101881.50;;;12.70;70.28
57827;BME280;43656;57.746;11.780;2023-05-29T00:46:32;101877.66;;;12.64;70.26
57827;BME280;43656;57.746;11.780;2023-05-29T00:49:01;101868.38;;;12.52;70.48
57827;BME280;43656;57.746;11.780;2023-05-29T00:51:28;101885.41;;;12.53;70.50
57827;BME280;43656;57.746;11.780;2023-05-29T00:53:54;101867.81;;;12.42;70.45
57827;BME280;43656;57.746;11.780;2023-05-29T00:56:20;101890.53;;;12.48;70.33
57827;BME280;43656;57.746;11.780;2023-05-29T00:58:49;101882.69;;;12.38;70.52
57827;BME280;43656;57.746;11.780;2023-05-29T01:01:17;101861.00;;;12.16;70.56
57827;BME280;43656;57.746;11.780;2023-05-29T01:03:43;101879.31;;;12.21;70.73
57827;BME280;43656;57.746;11.780;2023-05-29T01:06:08;101872.41;;;12.04;70.64
57827;BME280;43656;57.746;11.780;2023-05-29T01:08:35;101889.38;;;12.12;70.93
57827;BME280;43656;57.746;11.780;2023-05-29T01:11:11;101883.19;;;12.04;71.22
57827;BME280;43656;57.746;11.780;2023-05-29T01:13:39;101888.22;;;12.07;71.50
57827;BME280;43656;57.746;11.780;2023-05-29T01:16:31;101891.47;;;12.02;71.48
57827;BME280;43656;57.746;11.780;2023-05-29T01:19:29;101885.16;;;12.10;71.12
57827;BME280;43656;57.746;11.780;2023-05-29T01:28:33;101897.25;;;12.14;69.87
57827;BME280;43656;57.746;11.780;2023-05-29T01:31:00;101863.00;;;11.99;69.51
57827;BME280;43656;57.746;11.780;2023-05-29T01:33:28;101888.13;;;12.15;68.88
57827;BME280;43656;57.746;11.780;2023-05-29T01:35:53;101882.09;;;12.13;68.43
57827;BME280;43656;57.746;11.780;2023-05-29T01:38:18;101895.16;;;12.24;67.62
57827;BME280;43656;57.746;11.780;2023-05-29T01:40:44;101869.03;;;12.02;67.50
57827;BME280;43656;57.746;11.780;2023-05-29T01:43:11;101875.94;;;12.04;67.22
57827;BME280;43656;57.746;11.780;2023-05-29T01:45:37;101893.22;;;12.33;66.48
57827;BME280;43656;57.746;11.780;2023-05-29T01:48:03;101892.19;;;12.34;65.80
57827;BME280;43656;57.746;11.780;2023-05-29T01:50:30;101891.72;;;12.30;66.14
57827;BME280;43656;57.746;11.780;2023-05-29T01:52:55;101898.31;;;12.28;65.69
57827;BME280;43656;57.746;11.780;2023-05-29T01:55:21;101907.34;;;12.20;65.83
57827;BME280;43656;57.746;11.780;2023-05-29T01:57:47;101903.13;;;12.17;65.69
57827;BME280;43656;57.746;11.780;2023-05-29T02:00:16;101890.38;;;12.11;65.29
57827;BME280;43656;57.746;11.780;2023-05-29T02:02:42;101906.59;;;12.26;65.21
57827;BME280;43656;57.746;11.780;2023-05-29T02:05:08;101897.00;;;12.23;65.14
57827;BME280;43656;57.746;11.780;2023-05-29T02:07:34;101899.34;;;12.27;64.65
57827;BME280;43656;57.746;11.780;2023-05-29T02:10:06;101889.75;;;12.24;64.64
57827;BME280;43656;57.746;11.780;2023-05-29T02:12:32;101879.41;;;12.13;64.03
57827;BME280;43656;57.746;11.780;2023-05-29T02:14:57;101895.72;;;12.19;64.49
57827;BME280;43656;57.746;11.780;2023-05-29T02:17:23;101901.09;;;12.19;64.66
57827;BME280;43656;57.746;11.780;2023-05-29T02:19:49;101903.44;;;12.22;64.57
57827;BME280;43656;57.746;11.780;2023-05-29T02:22:16;101904.44;;;12.21;64.69
57827;BME280;43656;57.746;11.780;2023-05-29T02:24:42;101907.50;;;12.18;64.81
57827;BME280;43656;57.746;11.780;2023-05-29T02:27:07;101909.56;;;12.16;64.90
57827;BME280;43656;57.746;11.780;2023-05-29T02:29:33;101907.50;;;12.18;64.57
57827;BME280;43656;57.746;11.780;2023-05-29T02:31:58;101919.25;;;12.26;64.25
57827;BME280;43656;57.746;11.780;2023-05-29T02:34:24;101918.53;;;12.32;63.87
57827;BME280;43656;57.746;11.780;2023-05-29T02:36:50;101920.38;;;12.31;63.75
57827;BME280;43656;57.746;11.780;2023-05-29T02:39:20;101923.75;;;12.33;63.61
57827;BME280;43656;57.746;11.780;2023-05-29T02:41:45;101918.53;;;12.46;63.38
57827;BME280;43656;57.746;11.780;2023-05-29T02:44:11;101920.81;;;12.73;62.49
57827;BME280;43656;57.746;11.780;2023-05-29T02:46:36;101913.22;;;13.12;61.33
57827;BME280;43656;57.746;11.780;2023-05-29T02:49:02;101912.88;;;13.52;60.11
57827;BME280;43656;57.746;11.780;2023-05-29T02:51:27;101912.13;;;13.79;58.71
57827;BME280;43656;57.746;11.780;2023-05-29T02:53:53;101907.78;;;14.06;58.27
57827;BME280;43656;57.746;11.780;2023-05-29T02:56:19;101908.47;;;14.43;57.46
57827;BME280;43656;57.746;11.780;2023-05-29T02:58:49;101922.78;;;14.87;56.16
57827;BME280;43656;57.746;11.780;2023-05-29T03:01:15;101921.47;;;15.24;55.48
57827;BME280;43656;57.746;11.780;2023-05-29T03:03:40;101927.84;;;15.58;54.63
57827;BME280;43656;57.746;11.780;2023-05-29T03:06:06;101920.19;;;15.81;53.59
57827;BME280;43656;57.746;11.780;2023-05-29T03:08:31;101915.44;;;16.16;52.94
57827;BME280;43656;57.746;11.780;2023-05-29T03:10:57;101920.59;;;16.64;51.56
57827;BME280;43656;57.746;11.780;2023-05-29T03:13:22;101918.84;;;17.03;50.46
57827;BME280;43656;57.746;11.780;2023-05-29T03:15:47;101913.06;;;17.31;49.63
57827;BME280;43656;57.746;11.780;2023-05-29T03:18:13;101894.06;;;17.63;48.26
57827;BME280;43656;57.746;11.780;2023-05-29T03:20:38;101908.47;;;18.27;46.99
57827;BME280;43656;57.746;11.780;2023-05-29T03:23:04;101906.41;;;18.66;45.95
57827;BME280;43656;57.746;11.780;2023-05-29T03:25:29;101916.97;;;18.81;45.06
57827;BME280;43656;57.746;11.780;2023-05-29T03:27:55;101927.97;;;19.11;44.24
57827;BME280;43656;57.746;11.780;2023-05-29T03:30:20;101929.59;;;19.30;43.28
57827;BME280;43656;57.746;11.780;2023-05-29T03:32:46;101928.94;;;19.16;42.87
57827;BME280;43656;57.746;11.780;2023-05-29T03:35:11;101928.19;;;19.58;42.33
57827;BME280;43656;57.746;11.780;2023-05-29T03:37:37;101927.78;;;19.73;42.40
57827;BME280;43656;57.746;11.780;2023-05-29T03:40:03;101927.00;;;19.95;42.24
57827;BME280;43656;57.746;11.780;2023-05-29T03:42:30;101926.94;;;20.26;41.70
57827;BME280;43656;57.746;11.780;2023-05-29T03:44:56;101931.69;;;20.18;41.73
57827;BME280;43656;57.746;11.780;2023-05-29T03:47:22;101932.38;;;20.02;42.34
57827;BME280;43656;57.746;11.780;2023-05-29T03:49:47;101934.50;;;20.00;42.46
57827;BME280;43656;57.746;11.780;2023-05-29T03:52:13;101930.66;;;19.89;42.79
57827;BME280;43656;57.746;11.780;2023-05-29T03:54:38;101908.38;;;20.16;42.11
57827;BME280;43656;57.746;11.780;2023-05-29T03:57:04;101918.63;;;20.21;41.08
57827;BME280;43656;57.746;11.780;2023-05-29T03:59:30;101926.63;;;20.57;39.68
57827;BME280;43656;57.746;11.780;2023-05-29T04:01:55;101934.75;;;21.04;38.14
57827;BME280;43656;57.746;11.780;2023-05-29T04:04:21;101929.28;;;21.16;37.14
57827;BME280;43656;57.746;11.780;2023-05-29T04:06:46;101936.00;;;21.66;36.14
57827;BME280;43656;57.746;11.780;2023-05-29T04:09:12;101941.25;;;21.84;35.47
57827;BME280;43656;57.746;11.780;2023-05-29T04:11:37;101943.06;;;22.24;34.57
57827;BME280;43656;57.746;11.780;2023-05-29T04:14:04;101942.28;;;22.12;34.26
57827;BME280;43656;57.746;11.780;2023-05-29T04:16:30;101952.38;;;22.23;34.21
57827;BME280;43656;57.746;11.780;2023-05-29T04:18:55;101952.69;;;22.26;33.96
57827;BME280;43656;57.746;11.780;2023-05-29T04:21:21;101945.53;;;22.09;33.96
57827;BME280;43656;57.746;11.780;2023-05-29T04:23:46;101935.47;;;21.97;33.89
57827;BME280;43656;57.746;11.780;2023-05-29T04:26:12;101944.00;;;21.84;33.76
57827;BME280;43656;57.746;11.780;2023-05-29T04:28:38;101943.88;;;21.22;34.70
57827;BME280;43656;57.746;11.780;2023-05-29T04:31:04;101952.41;;;20.61;35.00
57827;BME280;43656;57.746;11.780;2023-05-29T04:33:31;101957.63;;;20.75;35.22
57827;BME280;43656;57.746;11.780;2023-05-29T04:35:57;101965.97;;;20.80;35.00
57827;BME280;43656;57.746;11.780;2023-05-29T04:38:26;101966.34;;;20.60;35.79
57827;BME280;43656;57.746;11.780;2023-05-29T04:40:52;101972.03;;;20.94;35.39
57827;BME280;43656;57.746;11.780;2023-05-29T04:43:22;101971.50;;;21.08;35.51
57827;BME280;43656;57.746;11.780;2023-05-29T04:45:48;101966.69;;;20.87;35.51
57827;BME280;43656;57.746;11.780;2023-05-29T04:48:13;101980.25;;;20.70;35.92
57827;BME280;43656;57.746;11.780;2023-05-29T04:50:39;101987.63;;;20.70;36.27
57827;BME280;43656;57.746;11.780;2023-05-29T04:53:04;101976.66;;;20.58;36.17
57827;BME280;43656;57.746;11.780;2023-05-29T04:55:30;101985.47;;;20.06;36.85
57827;BME280;43656;57.746;11.780;2023-05-29T04:57:55;101985.50;;;19.58;37.92
57827;BME280;43656;57.746;11.780;2023-05-29T05:00:21;101976.09;;;19.72;37.46
57827;BME280;43656;57.746;11.780;2023-05-29T05:02:47;101999.72;;;19.30;37.93
57827;BME280;43656;57.746;11.780;2023-05-29T05:05:12;101987.59;;;19.25;37.99
57827;BME280;43656;57.746;11.780;2023-05-29T05:07:38;101987.75;;;19.31;37.84
57827;BME280;43656;57.746;11.780;2023-05-29T05:10:04;101997.06;;;19.05;38.43
57827;BME280;43656;57.746;11.780;2023-05-29T05:12:30;101996.66;;;18.83;39.00
57827;BME280;43656;57.746;11.780;2023-05-29T05:14:55;101997.81;;;18.18;39.93
57827;BME280;43656;57.746;11.780;2023-05-29T05:17:21;101992.78;;;17.83;41.00
57827;BME280;43656;57.746;11.780;2023-05-29T05:19:47;101986.75;;;18.13;40.44
57827;BME280;43656;57.746;11.780;2023-05-29T05:22:14;101989.47;;;17.81;41.15
57827;BME280;43656;57.746;11.780;2023-05-29T05:24:40;101993.31;;;17.60;41.52
57827;BME280;43656;57.746;11.780;2023-05-29T05:27:05;101992.22;;;18.06;41.60
57827;BME280;43656;57.746;11.780;2023-05-29T05:29:31;101994.84;;;17.95;41.79
57827;BME280;43656;57.746;11.780;2023-05-29T05:31:57;101993.06;;;17.69;42.55
57827;BME280;43656;57.746;11.780;2023-05-29T05:34:22;101984.50;;;17.65;42.79
57827;BME280;43656;57.746;11.780;2023-05-29T05:36:47;101983.19;;;17.29;43.33
57827;BME280;43656;57.746;11.780;2023-05-29T05:39:14;101970.97;;;16.60;44.59
57827;BME280;43656;57.746;11.780;2023-05-29T05:41:40;101981.84;;;16.40;45.26
57827;BME280;43656;57.746;11.780;2023-05-29T05:44:06;101991.47;;;16.43;45.30
57827;BME280;43656;57.746;11.780;2023-05-29T05:46:32;101991.25;;;16.31;45.76
57827;BME280;43656;57.746;11.780;2023-05-29T05:48:57;102000.22;;;16.58;45.77
57827;BME280;43656;57.746;11.780;2023-05-29T05:51:23;101992.09;;;16.78;45.43
57827;BME280;43656;57.746;11.780;2023-05-29T05:53:50;102000.63;;;17.02;44.91
57827;BME280;43656;57.746;11.780;2023-05-29T05:56:16;102004.22;;;16.89;44.77
57827;BME280;43656;57.746;11.780;2023-05-29T05:58:41;102004.66;;;16.86;44.89
57827;BME280;43656;57.746;11.780;2023-05-29T06:01:07;102018.00;;;16.74;45.22
57827;BME280;43656;57.746;11.780;2023-05-29T06:03:33;102012.19;;;16.77;44.84
57827;BME280;43656;57.746;11.780;2023-05-29T06:05:59;102005.47;;;16.60;45.18
57827;BME280;43656;57.746;11.780;2023-05-29T06:08:25;102012.16;;;16.97;44.89
57827;BME280;43656;57.746;11.780;2023-05-29T06:10:50;102015.47;;;17.12;44.58
57827;BME280;43656;57.746;11.780;2023-05-29T06:13:16;102011.72;;;17.07;44.50
57827;BME280;43656;57.746;11.780;2023-05-29T06:15:42;101993.44;;;17.27;43.95
57827;BME280;43656;57.746;11.780;2023-05-29T06:18:08;102009.66;;;17.54;43.89
57827;BME280;43656;57.746;11.780;2023-05-29T06:20:33;102008.16;;;17.13;43.77
57827;BME280;43656;57.746;11.780;2023-05-29T06:22:59;102013.34;;;17.14;43.43
57827;BME280;43656;57.746;11.780;2023-05-29T06:25:25;102013.03;;;17.49;43.06
57827;BME280;43656;57.746;11.780;2023-05-29T06:28:02;102019.88;;;17.65;42.97
57827;BME280;43656;57.746;11.780;2023-05-29T06:30:28;102020.25;;;17.75;42.52
57827;BME280;43656;57.746;11.780;2023-05-29T06:32:54;102018.19;;;17.64;42.54
57827;BME280;43656;57.746;11.780;2023-05-29T06:35:19;102013.38;;;17.66;42.14
57827;BME280;43656;57.746;11.780;2023-05-29T06:37:46;102012.59;;;17.97;42.40
57827;BME280;43656;57.746;11.780;2023-05-29T06:40:12;102016.16;;;18.29;41.98
57827;BME280;43656;57.746;11.780;2023-05-29T06:42:38;102008.47;;;17.95;42.17
57827;BME280;43656;57.746;11.780;2023-05-29T06:45:03;102021.44;;;17.93;42.49
57827;BME280;43656;57.746;11.780;2023-05-29T06:47:29;102034.63;;;17.96;42.37
57827;BME280;43656;57.746;11.780;2023-05-29T06:49:55;102027.25;;;18.03;42.22
57827;BME280;43656;57.746;11.780;2023-05-29T06:52:20;102030.59;;;18.05;42.93
57827;BME280;43656;57.746;11.780;2023-05-29T06:54:46;102042.16;;;17.94;43.21
57827;BME280;43656;57.746;11.780;2023-05-29T06:57:11;102038.34;;;18.08;41.95
57827;BME280;43656;57.746;11.780;2023-05-29T06:59:37;102037.97;;;18.29;41.83
57827;BME280;43656;57.746;11.780;2023-05-29T07:02:03;102044.28;;;18.23;43.03
57827;BME280;43656;57.746;11.780;2023-05-29T07:04:28;102052.22;;;18.31;43.40
57827;BME280;43656;57.746;11.780;2023-05-29T07:06:54;102049.69;;;18.30;43.75
57827;BME280;43656;57.746;11.780;2023-05-29T07:09:19;102058.91;;;18.36;43.43
57827;BME280;43656;57.746;11.780;2023-05-29T07:11:45;102053.81;;;18.07;44.01
57827;BME280;43656;57.746;11.780;2023-05-29T07:14:10;102048.91;;;18.23;44.21
57827;BME280;43656;57.746;11.780;2023-05-29T07:16:35;102039.44;;;17.94;43.89
57827;BME280;43656;57.746;11.780;2023-05-29T07:19:01;102053.50;;;17.91;44.72
57827;BME280;43656;57.746;11.780;2023-05-29T07:21:26;102046.22;;;18.16;44.62
57827;BME280;43656;57.746;11.780;2023-05-29T07:23:52;102064.63;;;17.89;45.92
57827;BME280;43656;57.746;11.780;2023-05-29T07:26:17;102058.56;;;17.74;45.87
57827;BME280;43656;57.746;11.780;2023-05-29T07:28:43;102061.22;;;17.94;45.98
57827;BME280;43656;57.746;11.780;2023-05-29T07:31:08;102055.66;;;17.82;45.36
57827;BME280;43656;57.746;11.780;2023-05-29T07:33:34;102059.66;;;17.66;46.73
57827;BME280;43656;57.746;11.780;2023-05-29T07:36:00;102063.19;;;17.80;45.96
57827;BME280;43656;57.746;11.780;2023-05-29T07:38:25;102058.50;;;17.94;45.10
57827;BME280;43656;57.746;11.780;2023-05-29T07:40:51;102056.81;;;17.99;45.02
57827;BME280;43656;57.746;11.780;2023-05-29T07:43:16;102065.56;;;18.08;44.49
57827;BME280;43656;57.746;11.780;2023-05-29T07:45:41;102055.78;;;17.94;44.05
57827;BME280;43656;57.746;11.780;2023-05-29T07:48:07;102057.00;;;17.98;43.44
57827;BME280;43656;57.746;11.780;2023-05-29T07:50:32;102053.38;;;18.11;42.03
57827;BME280;43656;57.746;11.780;2023-05-29T07:52:59;102075.13;;;18.17;41.44
57827;BME280;43656;57.746;11.780;2023-05-29T07:55:25;102065.53;;;18.15;42.51
57827;BME280;43656;57.746;11.780;2023-05-29T07:57:51;102078.56;;;18.06;42.87
57827;BME280;43656;57.746;11.780;2023-05-29T08:00:16;102075.41;;;18.09;43.44
57827;BME280;43656;57.746;11.780;2023-05-29T08:02:42;102069.41;;;18.32;43.17
57827;BME280;43656;57.746;11.780;2023-05-29T08:05:08;102067.84;;;18.11;43.40
57827;BME280;43656;57.746;11.780;2023-05-29T08:07:35;102070.03;;;17.96;43.31
57827;BME280;43656;57.746;11.780;2023-05-29T08:10:00;102063.59;;;17.83;44.24
57827;BME280;43656;57.746;11.780;2023-05-29T08:12:25;102068.03;;;17.65;45.07
57827;BME280;43656;57.746;11.780;2023-05-29T08:14:51;102066.28;;;17.32;46.57
57827;BME280;43656;57.746;11.780;2023-05-29T08:17:16;102054.53;;;17.31;47.09
57827;BME280;43656;57.746;11.780;2023-05-29T08:19:42;102048.91;;;17.26;48.87
57827;BME280;43656;57.746;11.780;2023-05-29T08:22:07;102066.53;;;16.97;50.89
57827;BME280;43656;57.746;11.780;2023-05-29T08:24:33;102064.88;;;16.76;51.17
57827;BME280;43656;57.746;11.780;2023-05-29T08:26:58;102061.09;;;16.90;51.54
57827;BME280;43656;57.746;11.780;2023-05-29T08:29:23;102062.53;;;16.73;52.70
57827;BME280;43656;57.746;11.780;2023-05-29T08:31:49;102052.53;;;16.80;53.15
57827;BME280;43656;57.746;11.780;2023-05-29T08:34:14;102073.59;;;16.65;54.40
57827;BME280;43656;57.746;11.780;2023-05-29T08:36:40;102069.22;;;16.71;53.36
57827;BME280;43656;57.746;11.780;2023-05-29T08:39:06;102039.56;;;16.49;52.58
57827;BME280;43656;57.746;11.780;2023-05-29T08:44:16;102067.97;;;16.40;55.12
57827;BME280;43656;57.746;11.780;2023-05-29T08:46:46;102076.72;;;16.49;57.16
57827;BME280;43656;57.746;11.780;2023-05-29T08:49:14;102075.31;;;16.66;56.49
57827;BME280;43656;57.746;11.780;2023-05-29T08:51:43;102088.06;;;16.59;55.71
57827;BME280;43656;57.746;11.780;2023-05-29T08:54:13;102080.72;;;16.39;55.86
57827;BME280;43656;57.746;11.780;2023-05-29T08:56:39;102082.78;;;16.44;57.06
57827;BME280;43656;57.746;11.780;2023-05-29T08:59:05;102085.13;;;16.60;54.80
57827;BME280;43656;57.746;11.780;2023-05-29T09:01:34;102078.59;;;16.35;55.93
57827;BME280;43656;57.746;11.780;2023-05-29T09:04:00;102081.31;;;16.41;57.00
57827;BME280;43656;57.746;11.780;2023-05-29T09:06:26;102086.56;;;16.36;56.33
57827;BME280;43656;57.746;11.780;2023-05-29T09:08:52;102077.34;;;16.31;55.88
57827;BME280;43656;57.746;11.780;2023-05-29T09:11:18;102091.56;;;16.33;55.86
57827;BME280;43656;57.746;11.780;2023-05-29T09:13:46;102090.72;;;16.45;56.27
57827;BME280;43656;57.746;11.780;2023-05-29T09:16:11;102097.97;;;16.18;56.11
57827;BME280;43656;57.746;11.780;2023-05-29T09:18:37;102102.94;;;16.02;56.94
57827;BME280;43656;57.746;11.780;2023-05-29T09:21:07;102103.84;;;16.22;56.42
57827;BME280;43656;57.746;11.780;2023-05-29T09:23:34;102055.72;;;15.83;56.08
57827;BME280;43656;57.746;11.780;2023-05-29T09:26:02;102100.69;;;16.18;56.71
57827;BME280;43656;57.746;11.780;2023-05-29T09:28:30;102081.69;;;16.12;55.83
57827;BME280;43656;57.746;11.780;2023-05-29T09:30:56;102085.06;;;16.20;56.06
57827;BME280;43656;57.746;11.780;2023-05-29T09:33:22;102097.81;;;16.33;55.65
57827;BME280;43656;57.746;11.780;2023-05-29T09:35:49;102099.88;;;16.18;55.91
57827;BME280;43656;57.746;11.780;2023-05-29T09:38:19;102084.16;;;16.00;56.15
57827;BME280;43656;57.746;11.780;2023-05-29T09:40:45;102097.16;;;16.18;56.74
57827;BME280;43656;57.746;11.780;2023-05-29T09:43:15;102110.72;;;16.18;55.72
57827;BME280;43656;57.746;11.780;2023-05-29T09:45:47;102100.31;;;16.28;54.29
57827;BME280;43656;57.746;11.780;2023-05-29T09:48:17;102100.53;;;16.27;54.94
57827;BME280;43656;57.746;11.780;2023-05-29T09:50:44;102108.03;;;16.25;54.76
57827;BME280;43656;57.746;11.780;2023-05-29T09:55:46;102111.88;;;16.70;53.88
57827;BME280;43656;57.746;11.780;2023-05-29T09:58:13;102090.13;;;16.57;53.59
57827;BME280;43656;57.746;11.780;2023-05-29T10:00:41;102109.56;;;16.60;52.58
57827;BME280;43656;57.746;11.780;2023-05-29T10:03:07;102098.72;;;16.74;52.94
57827;BME280;43656;57.746;11.780;2023-05-29T10:05:32;102091.59;;;16.46;53.78
57827;BME280;43656;57.746;11.780;2023-05-29T10:07:59;102085.72;;;16.29;52.42
57827;BME280;43656;57.746;11.780;2023-05-29T10:10:27;102093.41;;;16.32;52.67
57827;BME280;43656;57.746;11.780;2023-05-29T10:12:53;102085.72;;;16.29;54.50
57827;BME280;43656;57.746;11.780;2023-05-29T10:15:22;102087.41;;;16.43;54.09
57827;BME280;43656;57.746;11.780;2023-05-29T10:17:57;102094.75;;;16.70;49.32
57827;BME280;43656;57.746;11.780;2023-05-29T10:20:26;102097.91;;;16.93;49.50
57827;BME280;43656;57.746;11.780;2023-05-29T10:22:56;102088.28;;;16.84;49.97
57827;BME280;43656;57.746;11.780;2023-05-29T10:25:22;102101.19;;;16.62;49.60
57827;BME280;43656;57.746;11.780;2023-05-29T10:27:49;102092.84;;;16.57;48.95
57827;BME280;43656;57.746;11.780;2023-05-29T10:30:39;102096.63;;;16.69;50.16
57827;BME280;43656;57.746;11.780;2023-05-29T10:36:10;102090.16;;;17.17;48.40
57827;BME280;43656;57.746;11.780;2023-05-29T10:38:40;102084.50;;;16.78;50.89
57827;BME280;43656;57.746;11.780;2023-05-29T10:43:54;102098.31;;;16.83;50.22
57827;BME280;43656;57.746;11.780;2023-05-29T10:46:20;102095.81;;;16.82;50.17
57827;BME280;43656;57.746;11.780;2023-05-29T10:48:49;102096.66;;;16.82;51.38
57827;BME280;43656;57.746;11.780;2023-05-29T10:51:25;102093.72;;;16.90;53.34
57827;BME280;43656;57.746;11.780;2023-05-29T10:53:51;102097.22;;;16.58;52.22
57827;BME280;43656;57.746;11.780;2023-05-29T10:56:22;102103.06;;;16.55;54.10
57827;BME280;43656;57.746;11.780;2023-05-29T10:58:56;102091.84;;;16.91;52.41
57827;BME280;43656;57.746;11.780;2023-05-29T11:01:23;102097.06;;;17.06;51.60
57827;BME280;43656;57.746;11.780;2023-05-29T11:03:50;102083.69;;;16.78;52.14
57827;BME280;43656;57.746;11.780;2023-05-29T11:06:21;102085.28;;;16.39;52.46
57827;BME280;43656;57.746;11.780;2023-05-29T11:08:56;102102.41;;;16.26;53.27
57827;BME280;43656;57.746;11.780;2023-05-29T11:11:29;102098.22;;;16.24;53.70
57827;BME280;43656;57.746;11.780;2023-05-29T11:13:56;102089.28;;;16.43;54.07
57827;BME280;43656;57.746;11.780;2023-05-29T11:18:52;102090.28;;;16.35;55.09
57827;BME280;43656;57.746;11.780;2023-05-29T11:24:25;102098.47;;;16.62;55.62
57827;BME280;43656;57.746;11.780;2023-05-29T11:26:53;102085.94;;;16.54;54.93
57827;BME280;43656;57.746;11.780;2023-05-29T11:29:23;102082.75;;;16.24;53.87
57827;BME280;43656;57.746;11.780;2023-05-29T11:32:03;102095.72;;;16.35;54.46
57827;BME280;43656;57.746;11.780;2023-05-29T11:34:30;102076.91;;;16.27;56.99
57827;BME280;43656;57.746;11.780;2023-05-29T11:36:58;102090.72;;;16.39;56.89
57827;BME280;43656;57.746;11.780;2023-05-29T11:39:24;102096.06;;;16.06;55.70
57827;BME280;43656;57.746;11.780;2023-05-29T11:41:50;102112.84;;;16.23;56.76
57827;BME280;43656;57.746;11.780;2023-05-29T11:44:17;102087.31;;;16.04;56.04
57827;BME280;43656;57.746;11.780;2023-05-29T11:46:42;102079.84;;;16.32;56.38
57827;BME280;43656;57.746;11.780;2023-05-29T11:49:07;102095.31;;;16.38;54.91
57827;BME280;43656;57.746;11.780;2023-05-29T11:51:33;102101.56;;;16.26;56.08
57827;BME280;43656;57.746;11.780;2023-05-29T11:53:58;102112.59;;;16.11;55.82
57827;BME280;43656;57.746;11.780;2023-05-29T11:56:28;102114.28;;;16.18;57.33
57827;BME280;43656;57.746;11.780;2023-05-29T11:58:54;102099.91;;;16.38;57.29
57827;BME280;43656;57.746;11.780;2023-05-29T12:01:22;102088.59;;;16.21;57.67
57827;BME280;43656;57.746;11.780;2023-05-29T12:03:49;102091.78;;;16.44;57.74
57827;BME280;43656;57.746;11.780;2023-05-29T12:06:17;102094.28;;;16.39;56.06
57827;BME280;43656;57.746;11.780;2023-05-29T12:09:01;102091.78;;;16.51;54.88
57827;BME280;43656;57.746;11.780;2023-05-29T12:11:27;102081.50;;;16.27;55.06
57827;BME280;43656;57.746;11.780;2023-05-29T12:14:00;102086.13;;;16.26;54.87
57827;BME280;43656;57.746;11.780;2023-05-29T12:16:28;102080.38;;;15.94;55.13
57827;BME280;43656;57.746;11.780;2023-05-29T12:18:54;102104.44;;;16.04;57.24
57827;BME280;43656;57.746;11.780;2023-05-29T12:21:21;102108.38;;;16.02;57.53
57827;BME280;43656;57.746;11.780;2023-05-29T12:23:47;102099.47;;;16.28;56.78
57827;BME280;43656;57.746;11.780;2023-05-29T12:26:12;102109.84;;;16.04;55.65
57827;BME280;43656;57.746;11.780;2023-05-29T12:28:44;102124.50;;;16.10;56.96
57827;BME280;43656;57.746;11.780;2023-05-29T12:31:10;102101.25;;;15.94;58.16
57827;BME280;43656;57.746;11.780;2023-05-29T12:33:42;102099.81;;;15.98;58.33
57827;BME280;43656;57.746;11.780;2023-05-29T12:36:09;102085.00;;;16.01;56.54
57827;BME280;43656;57.746;11.780;2023-05-29T12:38:51;102100.84;;;15.97;56.14
57827;BME280;43656;57.746;11.780;2023-05-29T12:41:33;102099.81;;;15.98;58.34
57827;BME280;43656;57.746;11.780;2023-05-29T12:44:02;102066.78;;;15.88;56.75
57827;BME280;43656;57.746;11.780;2023-05-29T12:46:34;102057.41;;;15.90;55.96
57827;BME280;43656;57.746;11.780;2023-05-29T12:49:17;102078.41;;;15.75;56.08
57827;BME280;43656;57.746;11.780;2023-05-29T12:51:46;102090.16;;;15.89;55.18
57827;BME280;43656;57.746;11.780;2023-05-29T12:54:15;102101.03;;;15.95;56.09
57827;BME280;43656;57.746;11.780;2023-05-29T12:56:42;102081.84;;;15.97;56.08
57827;BME280;43656;57.746;11.780;2023-05-29T12:59:08;102088.53;;;15.94;55.96
57827;BME280;43656;57.746;11.780;2023-05-29T13:01:34;102094.25;;;16.26;56.87